Time;durP1;ratioP1;P1;durP2;ratioP2;P2;SDS_P1;SDS_P2;PMS_P1;PMS_P2;Temp;Humidity;BMP_temperature;BMP_pressure;BME280_temperature;BME280_humidity;BME280_pressure;Samples;Min_cycle;Max_cycle;Signal;HPM_P1;HPM_P2
2022/06/21 00:00:43;;;;;;;1.98;0.20;;;;;;;24.71;34.47;99093.70;1770736;78;22858;-75
2022/06/21 00:03:14;;;;;;;1.95;0.30;;;;;;;24.65;34.61;99096.31;1666854;84;21492;-74
2022/06/21 00:05:44;;;;;;;7.62;0.35;;;;;;;24.61;34.59;99086.59;1666915;84;21583;-75
2022/06/21 00:08:15;;;;;;;2.45;0.40;;;;;;;24.60;34.68;99082.81;1670605;84;21025;-72
2022/06/21 00:10:43;;;;;;;0.47;0.20;;;;;;;24.59;34.51;99088.83;1674220;84;21098;-72
2022/06/21 00:13:18;;;;;;;1.85;0.20;;;;;;;24.58;34.51;99088.60;1658712;84;21070;-70
2022/06/21 00:15:47;;;;;;;2.85;0.20;;;;;;;24.59;34.43;99087.47;1643170;84;21026;-71
2022/06/21 00:18:19;;;;;;;3.92;0.25;;;;;;;24.58;34.32;99089.14;1653167;85;21530;-72
2022/06/21 00:20:46;;;;;;;1.37;0.42;;;;;;;24.56;34.37;99078.55;1642401;85;21101;-71
2022/06/21 00:23:18;;;;;;;0.85;0.30;;;;;;;24.56;34.28;99074.46;1692927;83;21155;-72
2022/06/21 00:25:46;;;;;;;2.20;0.25;;;;;;;24.54;34.20;99068.53;1703232;83;21492;-71
2022/06/21 00:28:15;;;;;;;2.62;0.20;;;;;;;24.51;34.25;99070.50;1702770;83;21160;-71
2022/06/21 00:30:44;;;;;;;1.50;0.20;;;;;;;24.49;34.21;99069.45;1705072;83;21017;-72
2022/06/21 00:33:15;;;;;;;3.37;0.40;;;;;;;24.49;34.18;99067.29;1702416;83;21009;-72
2022/06/21 00:35:45;;;;;;;2.33;0.35;;;;;;;24.47;34.11;99062.14;1655811;85;21131;-73
2022/06/21 00:38:24;;;;;;;1.05;0.30;;;;;;;24.46;34.06;99067.33;1655888;84;21008;-72
2022/06/21 00:40:50;;;;;;;5.22;0.78;;;;;;;24.43;34.05;99063.06;1658701;85;21048;-73
2022/06/21 00:43:21;;;;;;;3.12;0.20;;;;;;;24.40;34.02;99054.97;1655716;85;22247;-71
2022/06/21 00:45:50;;;;;;;2.65;0.30;;;;;;;24.38;34.13;99055.05;1662606;83;21053;-72
2022/06/21 00:48:22;;;;;;;1.12;0.37;;;;;;;24.36;34.01;99054.55;1660990;84;21020;-75
2022/06/21 00:51:27;;;;;;;2.87;0.30;;;;;;;24.33;34.07;99053.80;1657446;84;21046;-72
2022/06/21 00:54:14;;;;;;;2.52;0.20;;;;;;;24.32;34.10;99056.27;1649319;85;21090;-73
2022/06/21 00:56:51;;;;;;;;;;;;;;;24.31;34.01;99047.30;1673825;84;21189;-71
2022/06/21 00:59:29;;;;;;;0.98;0.20;;;;;;;24.30;33.92;99040.27;1676855;84;20147;-71
2022/06/21 01:02:16;;;;;;;0.88;0.35;;;;;;;24.25;34.03;99039.82;1623403;85;21304;-72
2022/06/21 01:04:46;;;;;;;4.70;0.75;;;;;;;24.23;34.09;99039.90;1560599;90;21613;-69
2022/06/21 01:07:13;;;;;;;2.50;0.35;;;;;;;23.86;34.15;98980.64;1596386;87;21465;-72
2022/06/21 01:10:09;;;;;;;2.25;0.20;;;;;;;24.17;34.22;99039.22;1614115;87;21098;-72
2022/06/21 01:12:47;;;;;;;3.52;0.30;;;;;;;24.16;34.16;99030.80;1643225;85;21042;-71
2022/06/21 01:15:19;;;;;;;1.07;0.33;;;;;;;24.13;34.25;99031.43;1664835;85;21021;-71
2022/06/21 01:17:50;;;;;;;2.70;0.30;;;;;;;24.10;34.23;99030.68;1650320;85;21184;-70
2022/06/21 01:20:22;;;;;;;0.28;0.20;;;;;;;24.08;34.39;99030.98;1661082;85;21672;-70
2022/06/21 01:23:11;;;;;;;4.22;0.60;;;;;;;24.06;34.24;99026.41;1669774;83;21108;-71
2022/06/21 01:26:17;;;;;;;3.80;0.40;;;;;;;24.03;34.34;99018.85;1685355;83;21123;-73
2022/06/21 01:28:44;;;;;;;1.45;0.45;;;;;;;24.01;34.42;99017.00;1683052;83;21125;-71
2022/06/21 01:31:11;;;;;;;2.22;0.20;;;;;;;24.00;34.35;99017.34;1682181;83;21057;-71
2022/06/21 01:33:41;;;;;;;1.65;0.25;;;;;;;24.00;34.42;99015.41;1675291;83;21052;-70
2022/06/21 01:36:13;;;;;;;1.75;0.20;;;;;;;23.98;34.31;99019.00;1632877;84;21059;-74
2022/06/21 01:38:47;;;;;;;3.33;0.20;;;;;;;23.96;34.32;99015.79;1667223;84;21115;-73
2022/06/21 01:41:19;;;;;;;0.93;0.13;;;;;;;23.92;34.42;99006.61;1640991;85;21057;-71
2022/06/21 01:43:51;;;;;;;0.40;0.20;;;;;;;23.87;34.56;99004.03;1651888;85;21056;-73
2022/06/21 01:46:21;;;;;;;1.98;0.53;;;;;;;23.81;34.70;99003.35;1652155;85;21052;-72
2022/06/21 01:48:55;;;;;;;3.15;0.20;;;;;;;23.74;34.81;99001.58;1649229;85;21072;-71
2022/06/21 01:51:27;;;;;;;1.05;0.30;;;;;;;23.69;34.84;98998.97;1658516;85;21083;-72
2022/06/21 01:53:55;;;;;;;0.68;0.10;;;;;;;23.66;35.16;99003.69;1662742;85;21099;-71
2022/06/21 01:56:32;;;;;;;3.47;0.45;;;;;;;23.65;34.95;99001.50;1669345;82;21121;-72
2022/06/21 01:59:08;;;;;;;;;;;;;;;23.62;35.00;99001.31;1681345;84;21062;-69
2022/06/21 02:01:49;;;;;;;0.60;0.20;;;;;;;23.60;35.16;99005.72;1672479;84;20159;-73
2022/06/21 02:04:20;;;;;;;1.17;0.37;;;;;;;23.51;35.34;99000.77;1660622;84;21085;-71
2022/06/21 02:06:50;;;;;;;0.30;0.23;;;;;;;23.45;35.29;99002.79;1674989;84;21100;-70
2022/06/21 02:09:31;;;;;;;1.02;0.30;;;;;;;23.44;35.32;98995.73;1671879;84;21122;-71
2022/06/21 02:12:06;;;;;;;0.68;0.20;;;;;;;23.42;35.34;98997.16;1678927;84;21034;-71
2022/06/21 02:14:43;;;;;;;0.35;0.30;;;;;;;23.44;35.69;98997.66;1674041;84;20998;-71
2022/06/21 02:17:25;;;;;;;3.40;0.28;;;;;;;23.47;35.39;98992.41;1683578;84;21106;-71
2022/06/21 02:20:23;;;;;;;1.70;0.35;;;;;;;23.49;35.41;98995.63;1667201;84;22198;-70
2022/06/21 02:22:49;;;;;;;1.10;0.40;;;;;;;23.56;35.32;98996.55;1659699;84;21108;-71
2022/06/21 02:25:21;;;;;;;2.25;0.30;;;;;;;23.68;35.00;98987.86;1641582;86;21081;-71
2022/06/21 02:27:50;;;;;;;3.77;0.20;;;;;;;23.78;34.99;98990.33;1636813;86;21624;-72
2022/06/21 02:30:24;;;;;;;1.45;0.30;;;;;;;23.89;34.69;98979.47;1635974;86;21094;-70
2022/06/21 02:32:56;;;;;;;2.27;0.20;;;;;;;24.03;34.66;98977.23;1641726;86;21542;-72
2022/06/21 02:35:47;;;;;;;0.88;0.30;;;;;;;24.14;34.38;98972.34;1683073;83;21037;-71
2022/06/21 02:38:24;;;;;;;2.00;0.33;;;;;;;24.24;34.58;98974.79;1705005;82;21081;-71
2022/06/21 02:41:18;;;;;;;1.35;0.35;;;;;;;24.36;34.33;98966.06;1711443;82;21674;-72
2022/06/21 02:44:10;;;;;;;0.42;0.23;;;;;;;24.45;33.93;98958.73;1708706;83;21070;-72
2022/06/21 02:46:42;;;;;;;1.40;0.75;;;;;;;24.56;33.87;98958.70;1707606;83;21085;-71
2022/06/21 02:49:13;;;;;;;2.95;0.40;;;;;;;24.62;34.00;98949.29;1714932;83;21062;-71
2022/06/21 02:51:47;;;;;;;0.62;0.30;;;;;;;24.72;33.97;98946.03;1713714;82;21078;-72
2022/06/21 02:54:29;;;;;;;2.90;0.33;;;;;;;24.84;33.89;98954.38;1700741;82;21480;-73
2022/06/21 02:57:18;;;;;;;1.95;0.35;;;;;;;25.03;33.76;98963.10;1650757;84;20991;-72
2022/06/21 02:59:48;;;;;;;1.02;0.30;;;;;;;25.27;33.72;98956.98;1657480;84;21131;-72
2022/06/21 03:02:20;;;;;;;2.72;0.55;;;;;;;25.54;33.24;98944.40;1657925;84;21126;-72
2022/06/21 03:04:59;;;;;;;0.82;0.20;;;;;;;25.80;33.16;98940.25;1679079;84;21141;-71
2022/06/21 03:07:30;;;;;;;0.30;0.30;;;;;;;26.05;32.54;98940.57;1663908;84;21078;-73
2022/06/21 03:09:58;;;;;;;2.98;0.20;;;;;;;26.30;32.31;98935.35;1661430;84;21065;-72
2022/06/21 03:12:29;;;;;;;2.10;0.57;;;;;;;26.53;31.73;98929.84;1681675;84;21015;-72
2022/06/21 03:15:01;;;;;;;4.92;0.72;;;;;;;26.61;31.60;98930.39;1679686;84;21059;-72
2022/06/21 03:17:33;;;;;;;0.55;0.30;;;;;;;26.70;31.72;98922.73;1678818;85;21063;-73
2022/06/21 03:20:01;;;;;;;1.50;0.10;;;;;;;26.86;31.51;98916.11;1678348;84;21003;-73
2022/06/21 03:22:34;;;;;;;1.12;0.45;;;;;;;27.06;31.16;98913.17;1679474;84;21098;-75
2022/06/21 03:25:05;;;;;;;1.27;0.30;;;;;;;27.26;30.87;98919.81;1678848;84;21062;-73
2022/06/21 03:27:38;;;;;;;1.65;0.45;;;;;;;27.47;30.99;98918.42;1680125;84;22112;-72
2022/06/21 03:30:07;;;;;;;0.93;0.30;;;;;;;27.79;30.28;98912.72;1676252;84;21060;-72
2022/06/21 03:32:37;;;;;;;3.52;0.72;;;;;;;28.05;30.27;98898.77;1682003;84;21017;-72
2022/06/21 03:35:06;;;;;;;1.45;0.30;;;;;;;28.33;29.66;98896.72;1679692;84;21607;-72
2022/06/21 03:37:39;;;;;;;0.60;0.30;;;;;;;28.62;29.36;98898.47;1679799;84;21055;-73
2022/06/21 03:42:56;;;;;;;1.40;0.47;;;;;;;29.29;28.55;98900.86;1678566;84;21079;-72
2022/06/21 03:45:27;;;;;;;1.47;0.50;;;;;;;29.57;28.20;98900.86;1666940;82;20979;-72
2022/06/21 03:47:59;;;;;;;9.40;0.70;;;;;;;29.86;27.69;98899.72;1715173;82;21050;-74
2022/06/21 03:50:32;;;;;;;1.35;0.60;;;;;;;30.19;27.39;98892.28;1715098;82;21078;-73
2022/06/21 03:53:19;;;;;;;3.12;0.28;;;;;;;30.49;26.97;98887.73;1703642;82;21560;-75
2022/06/21 03:55:59;;;;;;;3.33;0.35;;;;;;;30.66;26.95;98885.38;1703704;82;21823;-74
2022/06/21 03:58:44;;;;;;;1.07;0.20;;;;;;;30.95;26.72;98890.17;1692025;83;21096;-73
2022/06/21 04:01:43;;;;;;;2.67;0.40;;;;;;;31.20;26.26;98899.53;1698635;82;22245;-73
2022/06/21 04:04:27;;;;;;;1.75;0.30;;;;;;;31.39;26.45;98884.38;1695331;83;21018;-73
2022/06/21 04:07:07;;;;;;;1.47;0.45;;;;;;;31.72;25.57;98887.20;1698043;83;21620;-73
2022/06/21 04:09:42;;;;;;;1.45;0.40;;;;;;;31.82;25.55;98889.34;1689718;83;21233;-72
2022/06/21 04:12:45;;;;;;;0.50;0.20;;;;;;;32.05;25.39;98880.91;1665377;83;21117;-73
2022/06/21 04:15:53;;;;;;;3.10;0.20;;;;;;;32.24;24.95;98890.47;1635824;86;21152;-74
2022/06/21 04:18:37;;;;;;;1.85;0.60;;;;;;;32.40;25.00;98880.09;1643737;86;21053;-73
2022/06/21 04:21:15;;;;;;;0.45;0.30;;;;;;;32.65;24.67;98878.32;1641496;86;21607;-72
2022/06/21 04:24:06;;;;;;;1.62;0.35;;;;;;;32.84;24.35;98873.26;1684361;82;21163;-72
2022/06/21 04:26:41;;;;;;;0.40;0.20;;;;;;;33.00;24.44;98870.30;1643321;85;21090;-71
2022/06/21 04:29:21;;;;;;;0.50;0.30;;;;;;;33.04;24.28;98868.41;1662125;84;21404;-70
2022/06/21 04:32:08;;;;;;;3.85;0.40;;;;;;;33.08;24.31;98877.52;1642033;86;21307;-71
2022/06/21 04:35:04;;;;;;;0.72;0.37;;;;;;;33.24;24.16;98869.05;1629597;85;21055;-71
2022/06/21 04:37:38;;;;;;;1.35;0.20;;;;;;;33.12;24.07;98872.86;1702122;83;21086;-71
2022/06/21 04:40:11;;;;;;;3.10;0.37;;;;;;;32.92;24.57;98879.08;1694524;83;21007;-69
2022/06/21 04:42:46;;;;;;;2.45;0.23;;;;;;;32.91;24.91;98876.71;1690966;83;21573;-71
2022/06/21 04:45:21;;;;;;;1.98;0.50;;;;;;;32.97;24.52;98868.31;1713577;81;21803;-70
2022/06/21 04:48:10;;;;;;;2.83;0.80;;;;;;;32.88;24.95;98863.06;1730546;82;21495;-82
2022/06/21 04:50:58;;;;;;;2.10;0.40;;;;;;;32.83;24.74;98862.59;1730719;82;21421;-82
2022/06/21 04:53:30;;;;;;;1.87;0.40;;;;;;;32.74;24.88;98855.99;1728743;81;21066;-82
2022/06/21 04:56:53;;;;;;;1.32;0.62;;;;;;;32.65;25.30;98856.25;1691685;83;21039;-84
2022/06/21 04:59:41;;;;;;;2.95;0.40;;;;;;;32.58;25.30;98855.56;1690649;83;21143;-76
2022/06/21 05:02:20;;;;;;;3.75;0.50;;;;;;;32.55;25.13;98847.20;1701810;82;21548;-76
2022/06/21 05:04:57;;;;;;;1.70;0.20;;;;;;;32.22;25.91;98852.83;1694495;83;21046;-73
2022/06/21 05:07:27;;;;;;;0.88;0.37;;;;;;;32.01;26.26;98854.05;1658122;85;21608;-75
2022/06/21 05:09:58;;;;;;;1.25;0.70;;;;;;;31.95;26.00;98845.09;1649679;85;21649;-76
2022/06/21 05:12:31;;;;;;;2.08;0.42;;;;;;;31.88;26.89;98840.25;1619489;85;21539;-75
2022/06/21 05:15:06;;;;;;;3.00;0.60;;;;;;;31.96;26.44;98834.27;1606060;88;21070;-77
2022/06/21 05:17:37;;;;;;;2.77;0.50;;;;;;;32.06;26.68;98829.56;1604463;88;21133;-75
2022/06/21 05:20:09;;;;;;;1.77;0.75;;;;;;;32.16;26.23;98823.41;1645680;85;21179;-75
2022/06/21 05:22:41;;;;;;;3.12;0.55;;;;;;;31.99;26.48;98822.52;1646660;85;21134;-77
2022/06/21 05:25:25;;;;;;;7.25;0.60;;;;;;;31.76;26.96;98829.40;1645796;85;21523;-74
2022/06/21 05:28:15;;;;;;;3.33;0.72;;;;;;;31.70;27.13;98828.13;1619504;87;21035;-77
2022/06/21 05:30:53;;;;;;;3.87;0.30;;;;;;;31.77;27.50;98826.87;1618234;87;21103;-75
2022/06/21 05:33:32;;;;;;;2.10;0.28;;;;;;;31.80;26.85;98808.24;1608241;87;21178;-79
2022/06/21 05:36:01;;;;;;;1.17;0.53;;;;;;;31.73;27.33;98813.03;1690544;85;21095;-77
2022/06/21 05:38:31;;;;;;;4.47;0.53;;;;;;;31.70;27.24;98809.63;1692032;85;21037;-79
2022/06/21 05:41:30;;;;;;;4.17;0.40;;;;;;;31.82;27.30;98803.95;1664674;85;21002;-79
2022/06/21 05:44:15;;;;;;;5.17;0.55;;;;;;;31.97;27.50;98802.81;1692193;82;20995;-78
2022/06/21 05:46:47;;;;;;;2.83;0.50;;;;;;;32.04;27.26;98804.90;1672448;85;21746;-77
2022/06/21 05:49:25;;;;;;;1.75;0.40;;;;;;;32.03;27.41;98790.92;1686559;85;21107;-78
2022/06/21 05:51:53;;;;;;;0.60;0.53;;;;;;;32.15;27.27;98797.59;1689168;85;21136;-79
2022/06/21 05:54:26;;;;;;;3.35;0.30;;;;;;;32.30;27.12;98802.14;1693364;83;21589;-79
2022/06/21 05:56:54;;;;;;;2.72;0.50;;;;;;;32.55;26.70;98785.15;1682220;84;21044;-77
2022/06/21 05:59:23;;;;;;;2.27;0.40;;;;;;;32.54;26.79;98787.13;1667772;84;21132;-76
2022/06/21 06:01:57;;;;;;;2.17;0.30;;;;;;;32.42;27.18;98785.98;1683829;85;21061;-79
2022/06/21 06:04:47;;;;;;;1.72;0.53;;;;;;;32.58;27.11;98783.85;1694078;85;21002;-80
2022/06/21 06:07:27;;;;;;;0.95;0.80;;;;;;;32.70;26.89;98782.84;1676629;85;21119;-79
2022/06/21 06:09:57;;;;;;;2.47;0.80;;;;;;;32.68;27.07;98793.45;1688218;85;21225;-81
2022/06/21 06:12:28;;;;;;;4.20;0.50;;;;;;;32.84;27.09;98778.66;1694129;84;21086;-78
2022/06/21 06:15:02;;;;;;;2.92;0.55;;;;;;;32.83;26.83;98772.92;1689503;84;21123;-76
2022/06/21 06:17:41;;;;;;;3.52;0.70;;;;;;;32.64;27.29;98774.66;1695074;84;21074;-79
2022/06/21 06:20:28;;;;;;;1.17;0.53;;;;;;;32.63;27.46;98773.69;1693494;84;21056;-78
2022/06/21 06:23:01;;;;;;;5.17;0.60;;;;;;;32.70;27.87;98771.80;1679923;83;21047;-78
2022/06/21 06:25:36;;;;;;;2.42;0.50;;;;;;;33.07;27.12;98786.80;1692601;83;21023;-79
2022/06/21 06:28:44;;;;;;;4.53;1.05;;;;;;;33.18;27.02;98775.92;1692230;83;21090;-77
2022/06/21 06:31:32;;;;;;;2.00;0.60;;;;;;;33.20;27.05;98766.08;1680896;83;21027;-78
2022/06/21 06:34:03;;;;;;;3.75;0.60;;;;;;;33.34;27.06;98777.84;1692513;83;21075;-79
2022/06/21 06:36:34;;;;;;;6.50;0.90;;;;;;;33.16;27.43;98768.80;1686621;83;21600;-78
2022/06/21 06:39:07;;;;;;;2.42;0.80;;;;;;;33.09;27.39;98774.20;1688841;83;21071;-80
2022/06/21 06:42:00;;;;;;;2.75;0.65;;;;;;;33.13;27.52;98766.00;1686003;84;21095;-78
2022/06/21 06:44:31;;;;;;;6.40;0.70;;;;;;;33.17;27.61;98777.86;1692711;83;21217;-79
2022/06/21 06:47:01;;;;;;;3.02;0.95;;;;;;;33.02;27.88;98774.16;1681340;83;21124;-77
2022/06/21 06:49:39;;;;;;;4.33;0.68;;;;;;;32.92;27.81;98770.67;1694508;83;21071;-78
2022/06/21 06:52:20;;;;;;;3.20;0.68;;;;;;;32.72;28.07;98772.22;1694140;83;21693;-78
2022/06/21 06:55:13;;;;;;;5.10;0.57;;;;;;;32.50;28.71;98767.57;1683895;83;21090;-79
2022/06/21 06:58:03;;;;;;;2.70;0.70;;;;;;;32.52;28.48;98766.61;1694614;83;21059;-79
2022/06/21 07:00:39;;;;;;;5.62;0.90;;;;;;;32.43;28.76;98761.36;1692875;83;21042;-74
2022/06/21 07:03:21;;;;;;;1.10;0.40;;;;;;;32.30;29.43;98759.41;1684346;83;21103;-72
2022/06/21 07:06:18;;;;;;;1.92;0.65;;;;;;;32.31;29.45;98751.37;1692438;83;21035;-71
2022/06/21 07:09:10;;;;;;;1.22;0.60;;;;;;;32.09;30.01;98750.85;1688500;83;21039;-73
2022/06/21 07:11:43;;;;;;;4.72;0.70;;;;;;;32.01;29.94;98766.45;1694688;83;20984;-73
2022/06/21 07:14:18;;;;;;;3.12;0.65;;;;;;;32.05;30.56;98758.28;1687040;83;21513;-72
2022/06/21 07:16:45;;;;;;;0.98;0.40;;;;;;;32.12;30.28;98757.02;1692131;83;21099;-73
2022/06/21 07:19:11;;;;;;;3.30;0.78;;;;;;;32.06;30.51;98753.78;1684725;83;20992;-72
2022/06/21 07:21:39;;;;;;;5.67;0.80;;;;;;;31.96;30.80;98749.64;1694203;83;21039;-72
2022/06/21 07:24:16;;;;;;;2.22;1.17;;;;;;;31.84;30.95;98754.00;1694210;83;21783;-73
2022/06/21 07:26:57;;;;;;;2.87;1.25;;;;;;;31.82;31.37;98743.94;1693985;83;21613;-74
2022/06/21 07:29:40;;;;;;;3.77;1.10;;;;;;;31.98;31.28;98751.44;1669666;83;21585;-72
2022/06/21 07:32:12;;;;;;;5.97;1.12;;;;;;;31.91;31.79;98745.03;1694586;83;21059;-73
2022/06/21 07:34:49;;;;;;;2.45;1.27;;;;;;;31.85;31.86;98750.66;1694098;82;21577;-71
2022/06/21 07:37:30;;;;;;;3.85;1.07;;;;;;;31.84;31.95;98751.24;1688826;83;21118;-72
2022/06/21 07:40:19;;;;;;;6.65;1.12;;;;;;;31.65;32.55;98748.55;1695274;83;21062;-72
2022/06/21 07:43:00;;;;;;;5.95;1.67;;;;;;;31.37;33.13;98745.52;1694432;83;21143;-73
2022/06/21 07:45:32;;;;;;;3.98;1.27;;;;;;;31.29;33.53;98754.80;1693536;84;21071;-73
2022/06/21 07:48:10;;;;;;;3.42;1.20;;;;;;;31.27;33.61;98752.98;1694678;83;21120;-72
2022/06/21 07:50:47;;;;;;;7.35;1.30;;;;;;;31.33;33.91;98744.67;1694446;83;21107;-74
2022/06/21 07:53:34;;;;;;;4.83;1.05;;;;;;;31.47;33.54;98742.77;1688769;83;21118;-74
2022/06/21 07:56:26;;;;;;;11.50;1.92;;;;;;;31.55;33.47;98737.02;1693708;83;21622;-73
2022/06/21 07:59:10;;;;;;;8.03;1.65;;;;;;;31.59;33.59;98737.87;1694388;83;21205;-73
2022/06/21 08:07:28;;;;;;;1.90;1.80;;;;;;;31.40;34.66;98729.63;1690649;83;21218;-73
2022/06/21 08:10:21;;;;;;;5.85;1.85;;;;;;;31.37;34.43;98731.76;1696473;83;21087;-73
2022/06/21 08:12:49;;;;;;;5.85;1.12;;;;;;;31.28;34.51;98728.45;1693743;83;21598;-71
2022/06/21 08:15:17;;;;;;;3.83;1.75;;;;;;;31.26;34.81;98726.65;1694376;84;21082;-73
2022/06/21 08:18:06;;;;;;;3.10;1.75;;;;;;;31.30;35.03;98724.75;1695008;83;21582;-72
2022/06/21 08:20:41;;;;;;;6.97;1.92;;;;;;;31.35;35.05;98721.11;1689154;84;22138;-73
2022/06/21 08:23:19;;;;;;;3.75;1.90;;;;;;;31.35;35.08;98724.45;1693264;83;21106;-73
2022/06/21 08:26:09;;;;;;;4.35;2.45;;;;;;;31.21;35.55;98713.41;1691296;83;21592;-73
2022/06/21 08:28:56;;;;;;;5.55;1.52;;;;;;;31.13;35.29;98717.77;1691736;83;21399;-73
2022/06/21 08:31:42;;;;;;;7.05;1.80;;;;;;;31.09;35.49;98716.91;1694984;83;21118;-71
2022/06/21 08:34:29;;;;;;;2.58;1.77;;;;;;;31.07;35.92;98721.40;1692719;83;21047;-73
2022/06/21 08:37:04;;;;;;;2.55;1.67;;;;;;;31.14;35.79;98716.62;1688619;83;21629;-74
2022/06/21 08:40:08;;;;;;;4.83;2.30;;;;;;;31.17;35.75;98725.50;1691679;83;21055;-73
2022/06/21 08:43:01;;;;;;;2.90;1.55;;;;;;;31.15;35.56;98731.95;1692413;83;21023;-73
2022/06/21 08:45:42;;;;;;;6.45;1.90;;;;;;;31.05;35.64;98727.84;1664749;84;21094;-74
2022/06/21 08:48:32;;;;;;;2.58;1.85;;;;;;;30.88;36.10;98719.44;1694558;83;21362;-73
2022/06/21 08:51:06;;;;;;;4.95;1.57;;;;;;;30.80;36.37;98716.35;1694482;83;21513;-74
2022/06/21 08:54:09;;;;;;;5.70;2.00;;;;;;;30.79;36.50;98712.00;1693855;83;21737;-72
2022/06/21 08:57:14;;;;;;;4.08;1.57;;;;;;;30.86;35.62;98710.77;1681032;83;21059;-73
2022/06/21 09:00:06;;;;;;;3.27;2.27;;;;;;;30.85;35.88;98709.16;1693856;83;21125;-74
2022/06/21 09:02:57;;;;;;;12.18;2.35;;;;;;;30.95;35.95;98705.86;1694869;83;21093;-73
2022/06/21 09:06:08;;;;;;;5.00;1.90;;;;;;;31.03;36.00;98703.45;1694161;83;21191;-73
2022/06/21 09:09:04;;;;;;;2.58;2.02;;;;;;;31.18;35.74;98693.49;1693743;83;21094;-71
2022/06/21 09:11:59;;;;;;;7.55;2.37;;;;;;;31.33;35.26;98690.41;1687775;83;21041;-75
2022/06/21 09:15:02;;;;;;;3.20;2.00;;;;;;;31.43;34.99;98690.36;1692424;83;21102;-73
2022/06/21 09:17:49;;;;;;;4.05;2.00;;;;;;;31.49;35.08;98699.92;1694834;83;21007;-73
2022/06/21 09:20:49;;;;;;;5.17;2.42;;;;;;;31.54;34.90;98693.33;1687963;85;21155;-73
2022/06/21 09:23:35;;;;;;;10.55;2.37;;;;;;;31.59;35.01;98697.13;1690630;82;21042;-73
2022/06/21 09:26:10;;;;;;;5.10;2.45;;;;;;;31.61;34.71;98680.47;1682711;83;20987;-73
2022/06/21 09:29:09;;;;;;;6.85;2.33;;;;;;;31.56;34.84;98678.02;1695343;83;21103;-71
2022/06/21 09:31:50;;;;;;;4.10;2.22;;;;;;;31.52;34.92;98677.17;1705154;83;21072;-72
2022/06/21 09:34:50;;;;;;;5.83;2.30;;;;;;;31.49;34.88;98671.02;1702700;83;21188;-74
2022/06/21 09:37:47;;;;;;;5.55;1.85;;;;;;;31.51;34.43;98670.06;1693838;83;21055;-75
2022/06/21 09:40:26;;;;;;;6.58;1.82;;;;;;;31.50;34.42;98665.73;1691913;84;21169;-75
2022/06/21 09:43:22;;;;;;;2.10;1.80;;;;;;;31.53;34.30;98669.14;1693065;83;21570;-72
2022/06/21 09:46:15;;;;;;;2.70;1.90;;;;;;;31.49;34.20;98671.02;1676939;84;21039;-73
2022/06/21 09:49:07;;;;;;;2.02;1.60;;;;;;;31.32;34.34;98664.62;1667718;86;21490;-72
2022/06/21 09:52:00;;;;;;;5.00;2.30;;;;;;;31.09;34.88;98669.55;1668290;86;21123;-73
2022/06/21 09:54:37;;;;;;;3.45;1.90;;;;;;;30.94;35.19;98658.08;1666259;84;21039;-74
2022/06/21 09:57:31;;;;;;;9.10;2.02;;;;;;;30.80;35.60;98657.22;1702224;84;21050;-73
2022/06/21 10:00:18;;;;;;;4.83;1.60;;;;;;;30.75;35.54;98652.80;1708474;83;21592;-73
2022/06/21 10:03:01;;;;;;;4.15;1.20;;;;;;;30.80;35.41;98647.01;1695813;82;21113;-74
2022/06/21 10:06:03;;;;;;;4.42;1.37;;;;;;;30.86;35.32;98640.03;1708843;82;21074;-73
2022/06/21 10:08:51;;;;;;;2.33;1.60;;;;;;;30.97;35.23;98638.89;1708595;82;21182;-73
2022/06/21 10:11:44;;;;;;;8.63;2.05;;;;;;;31.01;35.11;98641.12;1709098;81;21053;-73
2022/06/21 10:14:56;;;;;;;4.87;1.57;;;;;;;31.09;35.26;98635.73;1708187;82;21061;-72
2022/06/21 10:17:46;;;;;;;4.05;2.52;;;;;;;31.14;35.86;98631.31;1695793;82;21034;-73
2022/06/21 10:20:56;;;;;;;3.77;1.32;;;;;;;31.11;35.60;98631.45;1707839;84;21198;-76
2022/06/21 10:23:47;;;;;;;5.75;1.98;;;;;;;30.99;35.74;98653.66;1709447;82;20998;-73
2022/06/21 10:26:48;;;;;;;13.65;2.52;;;;;;;30.76;36.23;98657.70;1707046;82;21085;-72
2022/06/21 10:29:34;;;;;;;10.28;3.25;;;;;;;30.50;37.20;98672.13;1708855;82;21050;-73
2022/06/21 10:32:40;;;;;;;9.05;3.37;;;;;;;29.85;38.28;98682.52;1703612;83;21176;-72
2022/06/21 10:35:47;;;;;;;8.88;2.80;;;;;;;29.34;39.54;98681.67;1696165;82;21110;-74
2022/06/21 10:38:46;;;;;;;6.35;2.58;;;;;;;28.73;41.11;98688.50;1709286;82;21030;-75
2022/06/21 10:42:46;;;;;;;8.88;2.20;;;;;;;28.06;44.06;98703.75;1706745;82;21549;-73
2022/06/21 10:44:18;;;;;;;9.83;2.50;;;;;;;27.51;45.91;98708.08;1705107;82;21059;-74
2022/06/21 10:46:52;;;;;;;6.55;2.67;;;;;;;27.04;47.41;98721.30;1709572;82;21073;-72
2022/06/21 10:49:44;;;;;;;6.75;2.35;;;;;;;26.72;48.37;98720.38;1708263;82;22053;-72
2022/06/21 10:52:46;;;;;;;6.10;2.98;;;;;;;26.48;49.27;98722.97;1707597;82;21140;-72
2022/06/21 10:55:27;;;;;;;2.92;2.70;;;;;;;26.30;49.98;98719.59;1701350;82;21089;-72
2022/06/21 10:58:22;;;;;;;9.55;3.83;;;;;;;26.03;51.13;98720.30;1709423;84;21089;-75
2022/06/21 11:01:18;;;;;;;6.00;3.80;;;;;;;25.77;51.72;98738.97;1707447;82;21053;-73
2022/06/21 11:04:25;;;;;;;5.00;4.30;;;;;;;25.65;55.10;98741.58;1708850;84;21078;-73
2022/06/21 11:07:09;;;;;;;7.40;4.60;;;;;;;25.55;55.74;98752.30;1700281;83;21007;-74
2022/06/21 11:09:41;;;;;;;6.00;4.47;;;;;;;25.41;56.40;98747.59;1694282;82;22310;-74
2022/06/21 11:15:55;;;;;;;9.48;5.03;;;;;;;25.21;55.80;98749.09;1702945;82;21054;-73
2022/06/21 11:18:35;;;;;;;8.78;5.80;;;;;;;25.17;55.45;98759.05;1705173;82;22187;-73
2022/06/21 11:21:16;;;;;;;6.03;5.50;;;;;;;25.14;55.37;98760.47;1706310;82;21053;-72
2022/06/21 11:23:57;;;;;;;8.83;6.47;;;;;;;25.13;55.60;98747.98;1708089;82;21078;-73
2022/06/21 11:26:56;;;;;;;7.70;6.37;;;;;;;25.14;55.04;98744.69;1705303;84;22639;-74
2022/06/21 11:29:43;;;;;;;11.45;6.80;;;;;;;25.15;54.92;98740.84;1700096;82;21077;-71
2022/06/21 11:32:29;;;;;;;9.25;7.12;;;;;;;25.20;55.28;98739.29;1699386;82;21077;-73
2022/06/21 11:35:08;;;;;;;9.95;7.30;;;;;;;25.24;55.77;98733.45;1693301;82;21129;-72
2022/06/21 11:38:24;;;;;;;8.48;7.50;;;;;;;25.25;56.22;98737.80;1707728;82;21021;-73
2022/06/21 11:42:04;;;;;;;9.68;7.40;;;;;;;25.30;56.11;98738.17;1707122;82;21089;-74
2022/06/21 11:43:56;;;;;;;10.20;6.60;;;;;;;25.34;57.32;98748.12;1709447;84;21076;-74
2022/06/21 11:46:43;;;;;;;25.88;7.28;;;;;;;25.29;57.74;98749.65;1703858;82;20986;-72
2022/06/21 11:49:48;;;;;;;10.85;6.62;;;;;;;25.23;57.43;98766.74;1699682;84;21031;-73
2022/06/21 11:52:40;;;;;;;9.95;5.97;;;;;;;25.10;57.39;98766.91;1663975;86;21012;-75
2022/06/21 11:55:27;;;;;;;36.23;3.72;;;;;;;24.87;57.13;98824.31;1653269;85;21090;-74
2022/06/21 11:58:14;;;;;;;15.20;2.58;;;;;;;24.49;55.55;98844.75;1646724;86;21630;-74
2022/06/21 12:00:52;;;;;;;6.10;1.15;;;;;;;23.85;56.13;98905.59;1644710;85;21050;-74
2022/06/21 12:03:33;;;;;;;7.78;1.70;;;;;;;23.27;61.36;98907.23;1636409;87;21331;-75
2022/06/21 12:06:15;;;;;;;7.83;0.50;;;;;;;22.70;63.32;98898.93;1652937;85;21685;-73
2022/06/21 12:09:02;;;;;;;8.08;2.62;;;;;;;22.11;66.14;98923.12;1654022;86;21063;-75
2022/06/21 12:11:52;;;;;;;6.75;1.80;;;;;;;21.66;70.53;98921.98;1651209;85;21138;-75
2022/06/21 12:14:51;;;;;;;2.25;0.40;;;;;;;21.20;74.35;98916.14;1640673;85;21137;-73
2022/06/21 12:18:12;;;;;;;3.05;0.42;;;;;;;20.37;78.98;98910.70;1838653;76;23449;-74
2022/06/21 12:21:03;;;;;;;2.55;0.60;;;;;;;19.79;80.32;98929.91;1782386;78;21076;-73
2022/06/21 12:23:53;;;;;;;2.58;0.37;;;;;;;19.32;83.42;98948.08;1748639;78;21028;-74
2022/06/21 12:26:23;;;;;;;4.55;1.20;;;;;;;18.94;82.11;98967.99;1673674;84;21100;-75
2022/06/21 12:28:53;;;;;;;0.93;0.60;;;;;;;18.66;84.51;98964.82;1681924;84;21180;-75
2022/06/21 12:31:34;;;;;;;0.82;0.50;;;;;;;18.37;86.35;98961.41;1679274;84;21035;-75
2022/06/21 12:34:17;;;;;;;2.77;0.30;;;;;;;18.18;87.37;98965.77;1680685;84;21080;-75
2022/06/21 12:36:55;;;;;;;2.25;0.60;;;;;;;18.03;85.92;98964.69;1645501;85;21080;-73
2022/06/21 12:39:53;;;;;;;2.67;0.23;;;;;;;17.92;86.27;98963.08;1658826;84;21032;-73
2022/06/21 12:42:55;;;;;;;0.60;0.17;;;;;;;17.78;87.73;98965.48;1666115;84;21576;-73
2022/06/21 12:45:50;;;;;;;0.78;0.20;;;;;;;17.64;89.81;98963.84;1674150;84;21621;-73
2022/06/21 12:48:55;;;;;;;1.00;0.30;;;;;;;17.48;89.78;98981.08;1682333;84;21081;-74
2022/06/21 12:51:44;;;;;;;2.95;0.30;;;;;;;17.37;89.69;98983.48;1678102;84;21063;-76
2022/06/21 12:54:33;;;;;;;1.37;0.57;;;;;;;17.27;90.21;98995.02;1691135;84;21108;-74